createdAt,value
2022-12-09T00:00:21.327Z,0.80
2022-12-09T00:03:06.508Z,0.75
2022-12-09T00:05:53.143Z,0.66
2022-12-09T00:08:38.522Z,0.62
2022-12-09T00:11:25.387Z,0.53
2022-12-09T00:14:11.046Z,0.63
2022-12-09T00:16:56.552Z,0.59
2022-12-09T00:19:44.858Z,0.61
2022-12-09T00:22:30.320Z,0.65
2022-12-09T00:25:17.057Z,0.53
2022-12-09T00:28:01.885Z,0.55
2022-12-09T00:30:47.114Z,0.59
2022-12-09T00:33:34.688Z,0.60
2022-12-09T00:36:21.879Z,0.63
2022-12-09T00:39:10.030Z,0.56
2022-12-09T00:41:58.485Z,0.58
2022-12-09T00:44:43.571Z,0.60
2022-12-09T00:47:30.029Z,0.72
2022-12-09T00:50:15.914Z,0.60
2022-12-09T00:53:01.154Z,0.52
2022-12-09T00:55:46.881Z,0.54
2022-12-09T00:58:32.080Z,0.51
2022-12-09T01:01:18.072Z,0.52
2022-12-09T01:04:05.576Z,0.54
2022-12-09T01:06:51.900Z,0.54
2022-12-09T01:09:37.402Z,0.54
2022-12-09T01:12:23.224Z,0.62
2022-12-09T01:15:09.023Z,0.60
2022-12-09T01:17:54.718Z,0.41
2022-12-09T01:20:40.346Z,0.37
2022-12-09T01:23:28.432Z,0.47
2022-12-09T01:26:14.917Z,0.51
2022-12-09T01:29:02.775Z,0.51
2022-12-09T01:31:48.214Z,0.58
2022-12-09T01:34:33.647Z,0.55
2022-12-09T01:37:19.098Z,0.65
2022-12-09T01:40:09.274Z,0.80
2022-12-09T01:42:54.926Z,0.72
2022-12-09T01:45:42.327Z,0.72
2022-12-09T01:48:31.608Z,0.66
2022-12-09T01:51:19.810Z,0.67
2022-12-09T01:54:05.199Z,0.56
2022-12-09T01:56:51.253Z,0.57
2022-12-09T01:59:41.339Z,0.59
2022-12-09T02:02:29.615Z,0.69
2022-12-09T02:05:15.315Z,0.67
2022-12-09T02:08:00.827Z,0.80
2022-12-09T02:11:21.250Z,0.82
2022-12-09T02:14:16.447Z,0.95
2022-12-09T02:17:26.176Z,0.81
2022-12-09T02:20:14.601Z,0.73
2022-12-09T02:23:06.214Z,0.74
2022-12-09T02:26:10.200Z,0.61
2022-12-09T02:29:28.761Z,0.69
2022-12-09T02:32:36.160Z,0.64
2022-12-09T02:35:51.079Z,0.60
2022-12-09T02:38:40.992Z,0.68
2022-12-09T02:41:29.340Z,0.89
2022-12-09T02:44:19.398Z,0.76
2022-12-09T02:47:07.314Z,0.52
2022-12-09T02:49:58.035Z,0.64
2022-12-09T02:52:48.397Z,0.56
2022-12-09T02:55:35.394Z,0.41
2022-12-09T02:58:20.795Z,0.39
2022-12-09T03:01:06.915Z,0.57
2022-12-09T03:03:54.618Z,0.59
2022-12-09T03:06:49.214Z,0.50
2022-12-09T03:09:39.974Z,0.44
2022-12-09T03:12:29.937Z,0.47
2022-12-09T03:15:21.762Z,0.55
2022-12-09T03:18:11.825Z,0.59
2022-12-09T03:20:57.375Z,0.62
2022-12-09T03:23:46.279Z,0.57
2022-12-09T03:26:35.621Z,0.54
2022-12-09T03:29:25.192Z,0.54
2022-12-09T03:32:12.647Z,0.61
2022-12-09T03:35:04.606Z,0.57
2022-12-09T03:37:52.034Z,0.45
2022-12-09T03:40:38.901Z,0.41
2022-12-09T03:43:29.912Z,0.32
2022-12-09T03:46:15.227Z,0.21
2022-12-09T03:49:00.517Z,0.26
2022-12-09T03:52:04.612Z,0.15
2022-12-09T03:54:57.735Z,0.04
2022-12-09T03:57:44.705Z,-0.01
2022-12-09T04:00:30.632Z,0.07
2022-12-09T04:03:18.072Z,0.05
2022-12-09T04:06:04.584Z,-0.03
2022-12-09T04:08:54.447Z,-0.16
2022-12-09T04:11:42.519Z,-0.23
2022-12-09T04:14:27.794Z,-0.15
2022-12-09T04:17:13.547Z,-0.20
2022-12-09T04:20:05.142Z,-0.22
2022-12-09T04:22:51.676Z,-0.09
2022-12-09T04:25:38.337Z,-0.05
2022-12-09T04:28:23.612Z,0.05
2022-12-09T04:31:13.820Z,0.03
2022-12-09T04:34:06.713Z,0.04
2022-12-09T04:36:54.242Z,0.18
2022-12-09T04:39:42.016Z,0.03
2022-12-09T04:42:28.554Z,0.03
2022-12-09T04:45:15.574Z,0.11
2022-12-09T04:48:01.369Z,0.18
2022-12-09T04:50:46.693Z,0.17
2022-12-09T04:53:31.800Z,0.30
2022-12-09T04:56:19.414Z,0.54
2022-12-09T04:59:05.542Z,0.43
2022-12-09T05:01:51.069Z,0.39
2022-12-09T05:04:36.809Z,0.41
2022-12-09T05:07:22.507Z,0.41
2022-12-09T05:10:08.563Z,0.37
2022-12-09T05:12:53.934Z,0.41
2022-12-09T05:15:39.092Z,0.53
2022-12-09T05:18:24.918Z,0.49
2022-12-09T05:21:22.433Z,0.54
2022-12-09T05:24:08.272Z,0.50
2022-12-09T05:26:56.544Z,0.47
2022-12-09T05:29:41.864Z,0.53
2022-12-09T05:32:27.381Z,0.57
2022-12-09T05:35:13.182Z,0.31
2022-12-09T05:38:00.024Z,0.28
2022-12-09T05:40:49.131Z,0.26
2022-12-09T05:43:37.827Z,0.24
2022-12-09T05:46:23.446Z,0.30
2022-12-09T05:49:09.541Z,0.24
2022-12-09T05:51:54.910Z,0.24
2022-12-09T05:54:40.931Z,0.16
2022-12-09T05:57:26.266Z,0.09
2022-12-09T06:00:12.175Z,0.22
2022-12-09T06:02:58.604Z,0.34
2022-12-09T06:05:44.167Z,0.27
2022-12-09T06:08:29.838Z,-0.01
2022-12-09T06:11:20.937Z,-0.05
2022-12-09T06:14:11.272Z,-0.08
2022-12-09T06:16:56.704Z,0.07
2022-12-09T06:19:42.440Z,0.12
2022-12-09T06:22:28.077Z,0.09
2022-12-09T06:25:13.530Z,0.06
2022-12-09T06:27:59.033Z,0.28
2022-12-09T06:30:44.114Z,0.12
2022-12-09T06:33:53.438Z,0.21
2022-12-09T06:36:35.014Z,0.12
2022-12-09T06:39:20.153Z,0.11
2022-12-09T06:42:05.621Z,0.10
2022-12-09T06:44:51.096Z,0.11
2022-12-09T06:47:36.617Z,0.09
2022-12-09T06:50:22.150Z,0.02
2022-12-09T06:53:07.855Z,-0.05
2022-12-09T06:55:53.565Z,-0.01
2022-12-09T06:58:42.127Z,0.04
2022-12-09T07:01:27.693Z,-0.11
2022-12-09T07:04:14.782Z,-0.05
2022-12-09T07:07:00.048Z,-0.08
2022-12-09T07:09:45.827Z,0.04
2022-12-09T07:12:31.628Z,0.11
2022-12-09T07:15:17.592Z,0.21
2022-12-09T07:18:02.978Z,0.27
2022-12-09T07:20:49.385Z,0.31
2022-12-09T07:23:34.740Z,0.25
2022-12-09T07:26:21.434Z,0.15
2022-12-09T07:29:07.982Z,0.11
2022-12-09T07:31:56.383Z,-0.03
2022-12-09T07:34:42.145Z,0.05
2022-12-09T07:37:27.159Z,0.06
2022-12-09T07:40:13.087Z,0.04
2022-12-09T07:42:59.892Z,0.10
2022-12-09T07:45:46.398Z,0.09
2022-12-09T07:48:32.104Z,-0.14
2022-12-09T07:51:17.987Z,-0.01
2022-12-09T07:54:04.124Z,0.01
2022-12-09T07:56:49.532Z,0.01
2022-12-09T07:59:34.995Z,0.11
2022-12-09T08:02:20.809Z,0.13
2022-12-09T08:05:06.954Z,0.10
2022-12-09T08:07:52.723Z,0.05
2022-12-09T08:10:38.396Z,-0.04
2022-12-09T08:13:23.824Z,-0.20
2022-12-09T08:16:11.123Z,-0.19
2022-12-09T08:18:57.515Z,-0.22
2022-12-09T08:21:43.422Z,-0.25
2022-12-09T08:24:28.858Z,-0.31
2022-12-09T08:27:14.053Z,-0.29
2022-12-09T08:29:59.387Z,-0.20
2022-12-09T08:32:45.030Z,-0.17
2022-12-09T08:35:31.311Z,-0.02
2022-12-09T08:38:16.735Z,0.14
2022-12-09T08:41:13.302Z,0.21
2022-12-09T08:43:59.212Z,0.20
2022-12-09T08:46:48.297Z,0.16
2022-12-09T08:49:33.995Z,-0.18
2022-12-09T08:52:19.258Z,-0.35
2022-12-09T08:55:05.123Z,-0.26
2022-12-09T08:57:50.698Z,-0.26
2022-12-09T09:00:36.403Z,-0.27
2022-12-09T09:03:21.833Z,-0.26
2022-12-09T09:06:10.360Z,-0.12
2022-12-09T09:08:57.428Z,-0.07
2022-12-09T09:11:44.059Z,-0.01
2022-12-09T09:14:29.892Z,0.13
2022-12-09T09:17:15.300Z,0.19
2022-12-09T09:20:01.241Z,0.22
2022-12-09T09:22:47.154Z,0.36
2022-12-09T09:25:32.444Z,0.47
2022-12-09T09:28:17.507Z,0.49
2022-12-09T09:31:05.376Z,0.42
2022-12-09T09:33:51.129Z,0.62
2022-12-09T09:36:36.877Z,0.70
2022-12-09T09:39:25.027Z,0.79
2022-12-09T09:42:16.650Z,0.83
2022-12-09T09:45:07.460Z,0.70
2022-12-09T09:48:00.138Z,0.75
2022-12-09T09:50:53.746Z,0.71
2022-12-09T09:53:39.109Z,0.66
2022-12-09T09:56:31.369Z,0.90
2022-12-09T09:59:40.532Z,1.01
2022-12-09T10:02:48.442Z,1.17
2022-12-09T10:05:53.922Z,1.31
2022-12-09T10:08:45.749Z,1.33
2022-12-09T10:11:38.640Z,1.18
2022-12-09T10:15:03.534Z,1.25
2022-12-09T10:18:08.806Z,1.36
2022-12-09T10:20:54.735Z,1.45
2022-12-09T10:23:40.345Z,1.34
2022-12-09T10:26:29.206Z,1.29
2022-12-09T10:29:39.713Z,1.52
2022-12-09T10:32:28.821Z,1.61
2022-12-09T10:35:17.727Z,1.50
2022-12-09T10:38:11.983Z,1.73
2022-12-09T10:41:00.541Z,1.79
2022-12-09T10:43:45.964Z,1.85
2022-12-09T10:46:31.573Z,1.75
2022-12-09T10:49:22.192Z,1.89
2022-12-09T10:52:08.514Z,2.02
2022-12-09T10:54:54.448Z,2.09
2022-12-09T10:57:40.013Z,2.10
2022-12-09T11:00:28.452Z,2.23
2022-12-09T11:03:38.939Z,2.12
2022-12-09T11:06:38.926Z,2.11
2022-12-09T11:09:28.324Z,1.80
2022-12-09T11:12:39.894Z,1.43
2022-12-09T11:15:45.410Z,1.09
2022-12-09T11:18:37.405Z,1.18
2022-12-09T11:21:36.083Z,1.29
2022-12-09T11:24:23.932Z,1.37
2022-12-09T11:27:24.995Z,1.47
2022-12-09T11:30:18.294Z,1.62
2022-12-09T11:33:07.688Z,1.84
2022-12-09T11:36:09.914Z,1.80
2022-12-09T11:39:17.495Z,1.49
2022-12-09T11:42:19.444Z,1.43
2022-12-09T11:45:28.541Z,1.74
2022-12-09T11:48:37.535Z,1.86
2022-12-09T11:51:32.187Z,2.20
2022-12-09T11:54:26.261Z,2.60
2022-12-09T11:57:27.354Z,2.65
2022-12-09T12:00:18.754Z,2.82
2022-12-09T12:03:11.874Z,2.76
2022-12-09T12:06:00.284Z,2.63
2022-12-09T12:08:55.261Z,2.35
2022-12-09T12:12:04.799Z,2.31
2022-12-09T12:14:50.362Z,2.37
2022-12-09T12:17:49.433Z,2.36
2022-12-09T12:20:46.251Z,2.36
2022-12-09T12:23:56.282Z,2.30
2022-12-09T12:26:53.624Z,2.23
2022-12-09T12:29:51.210Z,2.13
2022-12-09T12:32:44.398Z,2.21
2022-12-09T12:35:47.749Z,1.96
2022-12-09T12:38:41.716Z,2.51
2022-12-09T12:41:55.800Z,2.50
2022-12-09T12:44:57.780Z,2.55
2022-12-09T12:47:48.885Z,2.80
2022-12-09T12:50:47.703Z,2.71
2022-12-09T12:53:53.674Z,2.84
2022-12-09T12:56:49.575Z,2.42
2022-12-09T12:59:49.704Z,2.46
2022-12-09T13:02:44.786Z,2.52
2022-12-09T13:05:36.367Z,2.24
2022-12-09T13:09:03.264Z,2.24
2022-12-09T13:11:52.871Z,2.20
2022-12-09T13:14:52.415Z,2.10
2022-12-09T13:17:38.156Z,2.11
2022-12-09T13:20:33.593Z,1.96
2022-12-09T13:23:24.686Z,1.85
2022-12-09T13:26:25.457Z,1.90
2022-12-09T13:29:47.655Z,1.76
2022-12-09T13:32:38.703Z,1.82
2022-12-09T13:35:35.130Z,1.84
2022-12-09T13:38:38.497Z,1.83
2022-12-09T13:41:26.806Z,1.86
2022-12-09T13:44:17.078Z,2.03
2022-12-09T13:47:33.470Z,2.02
2022-12-09T13:50:46.628Z,2.02
2022-12-09T13:53:38.946Z,1.81
2022-12-09T13:56:32.563Z,1.93
2022-12-09T13:59:40.352Z,2.04
2022-12-09T14:02:42.324Z,2.21
2022-12-09T14:05:30.593Z,2.00
2022-12-09T14:08:23.369Z,1.99
2022-12-09T14:11:37.231Z,1.93
2022-12-09T14:14:25.219Z,2.05
2022-12-09T14:17:40.896Z,1.99
2022-12-09T14:20:33.066Z,1.91
2022-12-09T14:23:18.882Z,1.81
2022-12-09T14:26:05.334Z,1.77
2022-12-09T14:28:52.679Z,1.54
2022-12-09T14:31:56.780Z,1.57
2022-12-09T14:34:43.901Z,1.54
2022-12-09T14:37:39.407Z,1.42
2022-12-09T14:40:42.879Z,1.46
2022-12-09T14:43:48.491Z,1.49
2022-12-09T14:46:41.389Z,1.41
2022-12-09T14:49:29.041Z,1.36
2022-12-09T14:52:34.459Z,1.17
2022-12-09T14:55:22.605Z,1.15
2022-12-09T14:58:23.231Z,1.03
2022-12-09T15:01:08.275Z,0.85
2022-12-09T15:03:57.842Z,0.82
2022-12-09T15:06:45.222Z,0.78
2022-12-09T15:09:31.713Z,0.64
2022-12-09T15:12:17.315Z,0.60
2022-12-09T15:15:25.966Z,0.38
2022-12-09T15:18:19.751Z,0.33
2022-12-09T15:21:05.120Z,0.29
2022-12-09T15:23:50.644Z,0.29
2022-12-09T15:26:36.157Z,0.11
2022-12-09T15:29:22.871Z,0.15
2022-12-09T15:32:20.999Z,0.08
2022-12-09T15:35:22.407Z,-0.01
2022-12-09T15:38:09.134Z,-0.07
2022-12-09T15:40:57.771Z,-0.24
2022-12-09T15:43:43.975Z,-0.43
2022-12-09T15:46:32.286Z,-0.52
2022-12-09T15:49:23.175Z,-0.54
2022-12-09T15:52:08.365Z,-0.58
2022-12-09T15:54:54.990Z,-0.77
2022-12-09T15:57:40.763Z,-0.74
2022-12-09T16:00:26.686Z,-0.78
2022-12-09T16:03:17.180Z,-0.76
2022-12-09T16:06:14.033Z,-0.65
2022-12-09T16:08:59.839Z,-0.64
2022-12-09T16:11:48.268Z,-0.68
2022-12-09T16:14:44.505Z,-0.64
2022-12-09T16:17:36.592Z,-0.78
2022-12-09T16:20:28.450Z,-0.71
2022-12-09T16:23:23.532Z,-0.75
2022-12-09T16:26:35.700Z,-0.75
2022-12-09T16:29:23.917Z,-0.71
2022-12-09T16:32:20.743Z,-0.91
2022-12-09T16:35:37.518Z,-1.04
2022-12-09T16:38:22.730Z,-1.10
2022-12-09T16:41:10.084Z,-1.14
2022-12-09T16:43:57.036Z,-1.07
2022-12-09T16:46:43.586Z,-1.02
2022-12-09T16:49:28.855Z,-0.92
2022-12-09T16:52:17.889Z,-1.01
2022-12-09T16:55:06.542Z,-1.02
2022-12-09T16:57:52.737Z,-1.04
2022-12-09T17:00:38.123Z,-1.22
2022-12-09T17:03:41.356Z,-1.39
2022-12-09T17:06:30.855Z,-1.45
2022-12-09T17:09:16.146Z,-1.40
2022-12-09T17:12:01.360Z,-1.30
2022-12-09T17:14:46.604Z,-1.27
2022-12-09T17:17:32.537Z,-1.29
2022-12-09T17:20:17.778Z,-1.14
2022-12-09T17:23:02.830Z,-1.15
2022-12-09T17:26:02.836Z,-1.02
2022-12-09T17:28:48.759Z,-0.89
2022-12-09T17:31:34.421Z,-0.79
2022-12-09T17:34:20.286Z,-0.79
2022-12-09T17:37:05.866Z,-0.98
2022-12-09T17:39:55.649Z,-1.08
2022-12-09T17:42:45.230Z,-1.08
2022-12-09T17:45:30.639Z,-0.96
2022-12-09T17:48:16.083Z,-0.91
2022-12-09T17:51:06.558Z,-0.94
2022-12-09T17:53:51.865Z,-0.77
2022-12-09T17:56:37.447Z,-0.77
2022-12-09T17:59:22.848Z,-0.85
2022-12-09T18:02:11.212Z,-0.93
2022-12-09T18:04:56.384Z,-0.81
2022-12-09T18:07:41.164Z,-0.73
2022-12-09T18:10:26.167Z,-0.73
2022-12-09T18:13:11.138Z,-0.63
2022-12-09T18:15:56.561Z,-0.55
2022-12-09T18:18:42.759Z,-0.69
2022-12-09T18:21:27.753Z,-0.73
2022-12-09T18:24:13.064Z,-0.69
2022-12-09T18:27:00.632Z,-0.66
2022-12-09T18:29:45.720Z,-0.62
2022-12-09T18:32:35.869Z,-0.59
2022-12-09T18:35:21.853Z,-0.47
2022-12-09T18:38:12.822Z,-0.39
2022-12-09T18:40:58.150Z,-0.41
2022-12-09T18:43:45.089Z,-0.36
2022-12-09T18:46:34.163Z,-0.41
2022-12-09T18:49:22.359Z,-0.44
2022-12-09T18:52:07.446Z,-0.40
2022-12-09T18:54:52.843Z,-0.35
2022-12-09T18:57:38.155Z,-0.46
2022-12-09T19:00:23.344Z,-0.29
2022-12-09T19:03:08.748Z,-0.38
2022-12-09T19:05:53.603Z,-0.32
2022-12-09T19:08:39.238Z,-0.50
2022-12-09T19:11:30.652Z,-0.49
2022-12-09T19:14:17.393Z,-0.50
2022-12-09T19:17:05.111Z,-0.43
2022-12-09T19:19:50.547Z,-0.30
2022-12-09T19:22:35.875Z,-0.21
2022-12-09T19:25:21.029Z,-0.15
2022-12-09T19:28:06.337Z,-0.13
2022-12-09T19:30:53.640Z,-0.07
2022-12-09T19:33:38.623Z,-0.02
2022-12-09T19:36:25.590Z,-0.07
2022-12-09T19:39:12.045Z,-0.13
2022-12-09T19:41:58.593Z,-0.10
2022-12-09T19:45:01.040Z,-0.10
2022-12-09T19:47:46.779Z,-0.03
2022-12-09T19:50:34.952Z,-0.07
2022-12-09T19:53:21.370Z,-0.10
2022-12-09T19:56:10.172Z,-0.17
2022-12-09T19:58:59.328Z,-0.21
2022-12-09T20:01:45.538Z,-0.07
2022-12-09T20:04:49.203Z,-0.21
2022-12-09T20:07:35.141Z,-0.15
2022-12-09T20:10:20.348Z,-0.25
2022-12-09T20:13:07.777Z,-0.11
2022-12-09T20:15:52.891Z,-0.10
2022-12-09T20:18:38.468Z,-0.07
2022-12-09T20:21:26.202Z,-0.13
2022-12-09T20:24:11.621Z,-0.37
2022-12-09T20:26:56.743Z,-0.25
2022-12-09T20:29:42.167Z,-0.23
2022-12-09T20:32:30.077Z,-0.21
2022-12-09T20:35:15.730Z,-0.14
2022-12-09T20:38:00.864Z,-0.19
2022-12-09T20:40:46.423Z,-0.35
2022-12-09T20:43:31.910Z,-0.43
2022-12-09T20:46:23.563Z,-0.70
2022-12-09T20:49:09.615Z,-0.64
2022-12-09T20:51:55.369Z,-0.73
2022-12-09T20:54:41.600Z,-0.82
2022-12-09T20:57:26.903Z,-0.97
2022-12-09T21:00:12.529Z,-0.78
2022-12-09T21:02:58.036Z,-1.06
2022-12-09T21:05:42.984Z,-1.18
2022-12-09T21:08:31.672Z,-1.15
2022-12-09T21:11:20.302Z,-1.04
2022-12-09T21:14:08.375Z,-1.14
2022-12-09T21:16:53.487Z,-1.28
2022-12-09T21:19:38.891Z,-1.33
2022-12-09T21:22:24.299Z,-1.42
2022-12-09T21:25:09.770Z,-1.40
2022-12-09T21:27:55.074Z,-1.47
2022-12-09T21:30:40.404Z,-1.49
2022-12-09T21:33:26.550Z,-1.52
2022-12-09T21:36:14.790Z,-1.59
2022-12-09T21:39:00.589Z,-1.60
2022-12-09T21:41:46.301Z,-1.69
2022-12-09T21:44:31.763Z,-1.72
2022-12-09T21:47:17.208Z,-1.77
2022-12-09T21:50:02.529Z,-1.82
2022-12-09T21:52:47.813Z,-1.88
2022-12-09T21:55:33.774Z,-1.82
2022-12-09T21:58:18.907Z,-1.79
2022-12-09T22:01:12.594Z,-1.85
2022-12-09T22:03:59.578Z,-1.97
2022-12-09T22:06:47.365Z,-2.00
2022-12-09T22:09:32.526Z,-2.09
2022-12-09T22:12:17.962Z,-2.08
2022-12-09T22:15:03.490Z,-2.06
2022-12-09T22:17:48.605Z,-2.16
2022-12-09T22:21:07.907Z,-2.11
2022-12-09T22:23:40.090Z,-2.17
2022-12-09T22:26:26.570Z,-2.17
2022-12-09T22:29:13.847Z,-2.11
2022-12-09T22:31:59.153Z,-2.07
2022-12-09T22:34:44.523Z,-2.09
2022-12-09T22:37:45.608Z,-2.26
2022-12-09T22:40:30.499Z,-2.24
2022-12-09T22:43:15.956Z,-2.21
2022-12-09T22:46:11.197Z,-2.20
2022-12-09T22:48:59.561Z,-2.15
2022-12-09T22:51:46.085Z,-2.10
2022-12-09T22:54:31.098Z,-2.18
2022-12-09T22:57:16.576Z,-2.13
2022-12-09T23:00:01.900Z,-2.17
2022-12-09T23:02:47.382Z,-2.20
2022-12-09T23:05:36.501Z,-2.24
2022-12-09T23:08:21.503Z,-2.36
2022-12-09T23:11:11.171Z,-2.35
2022-12-09T23:13:59.277Z,-2.42
2022-12-09T23:16:44.763Z,-2.51
2022-12-09T23:19:30.003Z,-2.56
2022-12-09T23:22:15.569Z,-2.57
2022-12-09T23:25:00.636Z,-2.53
2022-12-09T23:27:46.167Z,-2.43
2022-12-09T23:30:31.543Z,-2.54
2022-12-09T23:33:16.915Z,-2.70
2022-12-09T23:36:07.431Z,-2.83
2022-12-09T23:38:54.021Z,-2.77
2022-12-09T23:41:40.371Z,-2.71
2022-12-09T23:44:25.569Z,-2.68
2022-12-09T23:47:10.962Z,-2.69
2022-12-09T23:49:56.387Z,-2.68
2022-12-09T23:52:41.362Z,-2.68
2022-12-09T23:55:26.876Z,-2.68
2022-12-09T23:58:12.220Z,-2.66
